sensor_id;sensor_type;location;lat;lon;timestamp;P1;durP1;ratioP1;P2;durP2;ratioP2
41713;SDS011;27401;47.384;13.666;2022-08-03T13:58:20;2.23;;;0.90;;
41713;SDS011;27401;47.384;13.666;2022-08-03T14:00:46;4.13;;;0.70;;
41713;SDS011;27401;47.384;13.666;2022-08-03T14:03:11;3.15;;;0.60;;
41713;SDS011;27401;47.384;13.666;2022-08-03T14:05:37;0.50;;;0.50;;
41713;SDS011;27401;47.384;13.666;2022-08-03T14:08:04;2.40;;;0.70;;
41713;SDS011;27401;47.384;13.666;2022-08-03T14:10:31;2.10;;;0.75;;
41713;SDS011;27401;47.384;13.666;2022-08-03T14:12:57;3.00;;;0.68;;
41713;SDS011;27401;47.384;13.666;2022-08-03T14:15:24;0.80;;;0.60;;
41713;SDS011;27401;47.384;13.666;2022-08-03T14:17:50;29.77;;;7.95;;
41713;SDS011;27401;47.384;13.666;2022-08-03T14:20:16;40.72;;;9.55;;
41713;SDS011;27401;47.384;13.666;2022-08-03T14:22:41;40.63;;;10.48;;
41713;SDS011;27401;47.384;13.666;2022-08-03T14:25:07;32.13;;;6.88;;
41713;SDS011;27401;47.384;13.666;2022-08-03T14:27:33;19.20;;;5.47;;
41713;SDS011;27401;47.384;13.666;2022-08-03T14:29:58;16.58;;;4.35;;
41713;SDS011;27401;47.384;13.666;2022-08-03T14:32:25;10.77;;;4.05;;
41713;SDS011;27401;47.384;13.666;2022-08-03T14:34:51;13.45;;;3.72;;
41713;SDS011;27401;47.384;13.666;2022-08-03T14:37:17;8.68;;;2.42;;
41713;SDS011;27401;47.384;13.666;2022-08-03T14:39:43;4.50;;;1.70;;
41713;SDS011;27401;47.384;13.666;2022-08-03T14:42:08;2.35;;;1.30;;
41713;SDS011;27401;47.384;13.666;2022-08-03T14:44:34;4.15;;;1.23;;
41713;SDS011;27401;47.384;13.666;2022-08-03T14:46:59;1.75;;;1.13;;
41713;SDS011;27401;47.384;13.666;2022-08-03T14:49:25;3.15;;;1.40;;
41713;SDS011;27401;47.384;13.666;2022-08-03T14:51:50;2.40;;;1.30;;
41713;SDS011;27401;47.384;13.666;2022-08-03T14:54:16;2.35;;;1.13;;
41713;SDS011;27401;47.384;13.666;2022-08-03T14:56:41;1.50;;;0.90;;
41713;SDS011;27401;47.384;13.666;2022-08-03T14:59:07;1.25;;;0.90;;
41713;SDS011;27401;47.384;13.666;2022-08-03T15:01:32;1.02;;;0.70;;
41713;SDS011;27401;47.384;13.666;2022-08-03T15:03:58;1.73;;;1.10;;
41713;SDS011;27401;47.384;13.666;2022-08-03T15:06:23;1.00;;;0.73;;
41713;SDS011;27401;47.384;13.666;2022-08-03T15:08:49;1.20;;;0.77;;
41713;SDS011;27401;47.384;13.666;2022-08-03T15:11:15;1.45;;;0.65;;
41713;SDS011;27401;47.384;13.666;2022-08-03T15:13:40;0.68;;;0.68;;
41713;SDS011;27401;47.384;13.666;2022-08-03T15:16:06;1.98;;;1.17;;
41713;SDS011;27401;47.384;13.666;2022-08-03T15:18:32;2.17;;;0.77;;
41713;SDS011;27401;47.384;13.666;2022-08-03T15:20:58;2.67;;;0.85;;
41713;SDS011;27401;47.384;13.666;2022-08-03T15:23:23;3.75;;;1.30;;
41713;SDS011;27401;47.384;13.666;2022-08-03T15:25:50;1.08;;;0.98;;
41713;SDS011;27401;47.384;13.666;2022-08-03T15:28:16;1.33;;;1.00;;
41713;SDS011;27401;47.384;13.666;2022-08-03T15:30:41;3.20;;;0.95;;
41713;SDS011;27401;47.384;13.666;2022-08-03T15:33:07;2.15;;;0.80;;
41713;SDS011;27401;47.384;13.666;2022-08-03T15:35:32;1.08;;;0.98;;
41713;SDS011;27401;47.384;13.666;2022-08-03T15:37:58;2.72;;;1.15;;
41713;SDS011;27401;47.384;13.666;2022-08-03T15:40:24;0.88;;;0.70;;
41713;SDS011;27401;47.384;13.666;2022-08-03T15:42:49;1.20;;;0.90;;
41713;SDS011;27401;47.384;13.666;2022-08-03T15:45:15;1.20;;;1.10;;
41713;SDS011;27401;47.384;13.666;2022-08-03T15:47:40;0.77;;;0.77;;
41713;SDS011;27401;47.384;13.666;2022-08-03T15:50:06;1.00;;;0.93;;
41713;SDS011;27401;47.384;13.666;2022-08-03T15:52:32;1.80;;;0.80;;
41713;SDS011;27401;47.384;13.666;2022-08-03T15:54:57;0.85;;;0.75;;
41713;SDS011;27401;47.384;13.666;2022-08-03T15:57:23;0.98;;;0.98;;
41713;SDS011;27401;47.384;13.666;2022-08-03T15:59:48;0.85;;;0.75;;
41713;SDS011;27401;47.384;13.666;2022-08-03T16:02:14;0.88;;;0.70;;
41713;SDS011;27401;47.384;13.666;2022-08-03T16:04:40;1.70;;;1.05;;
41713;SDS011;27401;47.384;13.666;2022-08-03T16:07:05;0.95;;;0.70;;
41713;SDS011;27401;47.384;13.666;2022-08-03T16:09:31;0.73;;;0.65;;
41713;SDS011;27401;47.384;13.666;2022-08-03T16:11:56;2.28;;;0.80;;
41713;SDS011;27401;47.384;13.666;2022-08-03T16:14:22;1.33;;;0.75;;
41713;SDS011;27401;47.384;13.666;2022-08-03T16:16:47;2.10;;;0.80;;
41713;SDS011;27401;47.384;13.666;2022-08-03T16:19:13;0.80;;;0.73;;
41713;SDS011;27401;47.384;13.666;2022-08-03T16:21:38;0.70;;;0.70;;
41713;SDS011;27401;47.384;13.666;2022-08-03T16:24:04;0.85;;;0.75;;
41713;SDS011;27401;47.384;13.666;2022-08-03T16:26:30;0.70;;;0.70;;
41713;SDS011;27401;47.384;13.666;2022-08-03T16:28:55;0.88;;;0.85;;
41713;SDS011;27401;47.384;13.666;2022-08-03T16:31:21;1.90;;;0.80;;
41713;SDS011;27401;47.384;13.666;2022-08-03T16:33:47;0.73;;;0.70;;
41713;SDS011;27401;47.384;13.666;2022-08-03T16:36:13;1.70;;;0.60;;
41713;SDS011;27401;47.384;13.666;2022-08-03T16:38:38;0.65;;;0.65;;
41713;SDS011;27401;47.384;13.666;2022-08-03T16:41:04;0.73;;;0.55;;
41713;SDS011;27401;47.384;13.666;2022-08-03T16:43:29;0.60;;;0.60;;
41713;SDS011;27401;47.384;13.666;2022-08-03T16:45:59;0.77;;;0.75;;
41713;SDS011;27401;47.384;13.666;2022-08-03T16:48:24;0.90;;;0.60;;
41713;SDS011;27401;47.384;13.666;2022-08-03T16:50:50;3.00;;;0.57;;
41713;SDS011;27401;47.384;13.666;2022-08-03T16:53:15;1.90;;;0.70;;
41713;SDS011;27401;47.384;13.666;2022-08-03T16:55:41;2.53;;;2.33;;
41713;SDS011;27401;47.384;13.666;2022-08-03T16:58:06;3.17;;;1.08;;
41713;SDS011;27401;47.384;13.666;2022-08-03T17:00:32;1.02;;;0.90;;
41713;SDS011;27401;47.384;13.666;2022-08-03T17:02:59;0.80;;;0.80;;
41713;SDS011;27401;47.384;13.666;2022-08-03T17:05:26;0.68;;;0.68;;
41713;SDS011;27401;47.384;13.666;2022-08-03T17:07:51;0.90;;;0.90;;
41713;SDS011;27401;47.384;13.666;2022-08-03T17:10:18;0.90;;;0.90;;
41713;SDS011;27401;47.384;13.666;2022-08-03T17:12:44;1.38;;;1.27;;
41713;SDS011;27401;47.384;13.666;2022-08-03T17:15:09;9.23;;;6.85;;
41713;SDS011;27401;47.384;13.666;2022-08-03T17:17:35;6.18;;;4.70;;
41713;SDS011;27401;47.384;13.666;2022-08-03T17:20:05;4.13;;;3.05;;
41713;SDS011;27401;47.384;13.666;2022-08-03T17:22:35;1.77;;;1.67;;
41713;SDS011;27401;47.384;13.666;2022-08-03T17:25:05;1.17;;;0.90;;
41713;SDS011;27401;47.384;13.666;2022-08-03T17:27:34;1.10;;;1.10;;
41713;SDS011;27401;47.384;13.666;2022-08-03T17:30:04;2.40;;;1.50;;
41713;SDS011;27401;47.384;13.666;2022-08-03T17:32:36;1.33;;;1.23;;
41713;SDS011;27401;47.384;13.666;2022-08-03T17:35:04;2.30;;;1.52;;
41713;SDS011;27401;47.384;13.666;2022-08-03T17:37:31;1.45;;;1.35;;
41713;SDS011;27401;47.384;13.666;2022-08-03T17:39:57;1.58;;;1.48;;
41713;SDS011;27401;47.384;13.666;2022-08-03T17:42:23;0.80;;;0.80;;
41713;SDS011;27401;47.384;13.666;2022-08-03T17:44:49;1.15;;;1.08;;
41713;SDS011;27401;47.384;13.666;2022-08-03T17:47:16;2.15;;;1.08;;
41713;SDS011;27401;47.384;13.666;2022-08-03T17:49:41;1.05;;;0.98;;
41713;SDS011;27401;47.384;13.666;2022-08-03T17:52:12;3.15;;;1.83;;
41713;SDS011;27401;47.384;13.666;2022-08-03T17:57:27;1.42;;;1.15;;
41713;SDS011;27401;47.384;13.666;2022-08-03T18:05:49;1.85;;;1.33;;
41713;SDS011;27401;47.384;13.666;2022-08-03T18:08:17;2.72;;;1.13;;
41713;SDS011;27401;47.384;13.666;2022-08-03T18:10:56;0.90;;;0.85;;
41713;SDS011;27401;47.384;13.666;2022-08-03T18:13:27;1.65;;;1.27;;
41713;SDS011;27401;47.384;13.666;2022-08-03T18:16:00;3.05;;;1.10;;
41713;SDS011;27401;47.384;13.666;2022-08-03T18:18:30;3.67;;;1.50;;
41713;SDS011;27401;47.384;13.666;2022-08-03T18:21:03;1.30;;;1.08;;
41713;SDS011;27401;47.384;13.666;2022-08-03T18:23:30;1.67;;;1.30;;
41713;SDS011;27401;47.384;13.666;2022-08-03T18:25:57;1.50;;;1.30;;
41713;SDS011;27401;47.384;13.666;2022-08-03T18:28:23;2.45;;;1.63;;
41713;SDS011;27401;47.384;13.666;2022-08-03T18:30:50;2.72;;;2.53;;
41713;SDS011;27401;47.384;13.666;2022-08-03T18:33:16;1.25;;;1.10;;
41713;SDS011;27401;47.384;13.666;2022-08-03T18:35:43;3.67;;;0.98;;
41713;SDS011;27401;47.384;13.666;2022-08-03T18:38:10;1.15;;;0.93;;
41713;SDS011;27401;47.384;13.666;2022-08-03T18:40:42;1.65;;;0.90;;
41713;SDS011;27401;47.384;13.666;2022-08-03T18:43:07;1.00;;;0.85;;
41713;SDS011;27401;47.384;13.666;2022-08-03T18:45:35;2.78;;;0.90;;
41713;SDS011;27401;47.384;13.666;2022-08-03T18:48:05;2.00;;;1.17;;
41713;SDS011;27401;47.384;13.666;2022-08-03T18:56:13;2.58;;;1.35;;
41713;SDS011;27401;47.384;13.666;2022-08-03T18:59:05;2.47;;;1.10;;
41713;SDS011;27401;47.384;13.666;2022-08-03T19:01:39;1.73;;;1.30;;
41713;SDS011;27401;47.384;13.666;2022-08-03T19:04:10;1.65;;;0.93;;
41713;SDS011;27401;47.384;13.666;2022-08-03T19:06:38;2.70;;;0.80;;
41713;SDS011;27401;47.384;13.666;2022-08-03T19:09:10;2.15;;;1.20;;
41713;SDS011;27401;47.384;13.666;2022-08-03T19:11:44;3.28;;;0.82;;
41713;SDS011;27401;47.384;13.666;2022-08-03T19:14:11;1.83;;;1.15;;
41713;SDS011;27401;47.384;13.666;2022-08-03T19:16:38;2.28;;;0.90;;
41713;SDS011;27401;47.384;13.666;2022-08-03T19:19:10;1.35;;;1.23;;
41713;SDS011;27401;47.384;13.666;2022-08-03T19:21:36;2.97;;;1.25;;
41713;SDS011;27401;47.384;13.666;2022-08-03T19:24:03;5.28;;;1.17;;
41713;SDS011;27401;47.384;13.666;2022-08-03T19:26:35;1.52;;;0.88;;
41713;SDS011;27401;47.384;13.666;2022-08-03T19:29:04;1.33;;;0.90;;
41713;SDS011;27401;47.384;13.666;2022-08-03T19:31:31;0.90;;;0.90;;
41713;SDS011;27401;47.384;13.666;2022-08-03T19:33:56;1.08;;;0.90;;
41713;SDS011;27401;47.384;13.666;2022-08-03T19:36:24;1.85;;;1.15;;
41713;SDS011;27401;47.384;13.666;2022-08-03T19:38:51;1.05;;;0.95;;
41713;SDS011;27401;47.384;13.666;2022-08-03T19:41:18;2.13;;;1.10;;
41713;SDS011;27401;47.384;13.666;2022-08-03T19:43:46;2.40;;;1.00;;
41713;SDS011;27401;47.384;13.666;2022-08-03T19:46:14;0.80;;;0.80;;
41713;SDS011;27401;47.384;13.666;2022-08-03T19:48:41;0.82;;;0.82;;
41713;SDS011;27401;47.384;13.666;2022-08-03T19:51:08;0.80;;;0.80;;
41713;SDS011;27401;47.384;13.666;2022-08-03T19:53:34;0.98;;;0.90;;
41713;SDS011;27401;47.384;13.666;2022-08-03T19:56:04;0.93;;;0.90;;
41713;SDS011;27401;47.384;13.666;2022-08-03T19:58:31;1.67;;;1.30;;
41713;SDS011;27401;47.384;13.666;2022-08-03T20:00:57;2.90;;;0.90;;
41713;SDS011;27401;47.384;13.666;2022-08-03T20:03:26;3.72;;;1.67;;
41713;SDS011;27401;47.384;13.666;2022-08-03T20:05:55;1.10;;;1.10;;
41713;SDS011;27401;47.384;13.666;2022-08-03T20:08:21;1.35;;;1.25;;
41713;SDS011;27401;47.384;13.666;2022-08-03T20:10:47;1.20;;;1.10;;
41713;SDS011;27401;47.384;13.666;2022-08-03T20:13:13;1.00;;;1.00;;
41713;SDS011;27401;47.384;13.666;2022-08-03T20:15:40;2.42;;;1.17;;
41713;SDS011;27401;47.384;13.666;2022-08-03T20:18:05;3.03;;;1.17;;
41713;SDS011;27401;47.384;13.666;2022-08-03T20:20:33;1.30;;;1.20;;
41713;SDS011;27401;47.384;13.666;2022-08-03T20:23:03;1.70;;;1.13;;
41713;SDS011;27401;47.384;13.666;2022-08-03T20:25:31;0.98;;;0.90;;
41713;SDS011;27401;47.384;13.666;2022-08-03T20:28:02;1.50;;;0.85;;
41713;SDS011;27401;47.384;13.666;2022-08-03T20:30:31;1.45;;;1.05;;
41713;SDS011;27401;47.384;13.666;2022-08-03T20:32:56;2.35;;;1.30;;
41713;SDS011;27401;47.384;13.666;2022-08-03T20:35:22;2.00;;;1.80;;
41713;SDS011;27401;47.384;13.666;2022-08-03T20:37:48;1.15;;;1.02;;
41713;SDS011;27401;47.384;13.666;2022-08-03T20:40:14;1.25;;;1.15;;
41713;SDS011;27401;47.384;13.666;2022-08-03T20:42:39;2.33;;;1.42;;
41713;SDS011;27401;47.384;13.666;2022-08-03T20:45:05;1.13;;;1.02;;
41713;SDS011;27401;47.384;13.666;2022-08-03T20:47:32;2.03;;;1.20;;
41713;SDS011;27401;47.384;13.666;2022-08-03T20:49:59;1.70;;;1.60;;
41713;SDS011;27401;47.384;13.666;2022-08-03T20:52:26;1.17;;;1.10;;
41713;SDS011;27401;47.384;13.666;2022-08-03T20:54:52;2.05;;;1.23;;
41713;SDS011;27401;47.384;13.666;2022-08-03T20:57:18;1.30;;;1.20;;
41713;SDS011;27401;47.384;13.666;2022-08-03T20:59:44;4.78;;;1.30;;
41713;SDS011;27401;47.384;13.666;2022-08-03T21:02:10;1.10;;;1.00;;
41713;SDS011;27401;47.384;13.666;2022-08-03T21:04:36;3.08;;;1.30;;
41713;SDS011;27401;47.384;13.666;2022-08-03T21:07:05;4.78;;;1.25;;
41713;SDS011;27401;47.384;13.666;2022-08-03T21:09:35;1.58;;;1.17;;
41713;SDS011;27401;47.384;13.666;2022-08-03T21:12:11;1.33;;;1.23;;
41713;SDS011;27401;47.384;13.666;2022-08-03T21:14:42;1.17;;;1.08;;
41713;SDS011;27401;47.384;13.666;2022-08-03T21:17:11;2.08;;;0.93;;
41713;SDS011;27401;47.384;13.666;2022-08-03T21:19:38;1.52;;;1.30;;
41713;SDS011;27401;47.384;13.666;2022-08-03T21:22:06;1.10;;;1.10;;
41713;SDS011;27401;47.384;13.666;2022-08-03T21:24:32;2.03;;;1.20;;
41713;SDS011;27401;47.384;13.666;2022-08-03T21:26:59;1.50;;;1.10;;
41713;SDS011;27401;47.384;13.666;2022-08-03T21:29:26;1.17;;;1.10;;
41713;SDS011;27401;47.384;13.666;2022-08-03T21:31:52;0.82;;;0.82;;
41713;SDS011;27401;47.384;13.666;2022-08-03T21:34:18;1.38;;;0.93;;
41713;SDS011;27401;47.384;13.666;2022-08-03T21:36:44;1.17;;;1.00;;
41713;SDS011;27401;47.384;13.666;2022-08-03T21:39:10;0.90;;;0.90;;
41713;SDS011;27401;47.384;13.666;2022-08-03T21:41:36;1.60;;;1.08;;
41713;SDS011;27401;47.384;13.666;2022-08-03T21:44:03;1.40;;;1.30;;
41713;SDS011;27401;47.384;13.666;2022-08-03T21:46:33;1.52;;;1.17;;
41713;SDS011;27401;47.384;13.666;2022-08-03T21:49:02;1.48;;;1.10;;
41713;SDS011;27401;47.384;13.666;2022-08-03T21:51:34;1.58;;;1.30;;
41713;SDS011;27401;47.384;13.666;2022-08-03T21:54:02;1.85;;;1.30;;
41713;SDS011;27401;47.384;13.666;2022-08-03T21:56:29;1.13;;;1.13;;
41713;SDS011;27401;47.384;13.666;2022-08-03T22:01:29;1.90;;;1.48;;
41713;SDS011;27401;47.384;13.666;2022-08-03T22:03:55;1.33;;;1.23;;
41713;SDS011;27401;47.384;13.666;2022-08-03T22:06:21;1.35;;;1.25;;
41713;SDS011;27401;47.384;13.666;2022-08-03T22:08:48;2.45;;;1.90;;
41713;SDS011;27401;47.384;13.666;2022-08-03T22:11:14;3.97;;;1.38;;
41713;SDS011;27401;47.384;13.666;2022-08-03T22:13:40;1.90;;;1.20;;
41713;SDS011;27401;47.384;13.666;2022-08-03T22:16:06;1.85;;;1.23;;
41713;SDS011;27401;47.384;13.666;2022-08-03T22:18:36;1.60;;;1.08;;
41713;SDS011;27401;47.384;13.666;2022-08-03T22:21:02;1.45;;;1.25;;
41713;SDS011;27401;47.384;13.666;2022-08-03T22:23:28;1.40;;;1.30;;
41713;SDS011;27401;47.384;13.666;2022-08-03T22:25:55;1.38;;;1.10;;
41713;SDS011;27401;47.384;13.666;2022-08-03T22:28:21;3.10;;;1.10;;
41713;SDS011;27401;47.384;13.666;2022-08-03T22:30:48;3.28;;;1.20;;
41713;SDS011;27401;47.384;13.666;2022-08-03T22:33:15;1.23;;;1.10;;
41713;SDS011;27401;47.384;13.666;2022-08-03T22:35:44;2.15;;;1.20;;
41713;SDS011;27401;47.384;13.666;2022-08-03T22:38:14;1.38;;;1.25;;
41713;SDS011;27401;47.384;13.666;2022-08-03T22:40:40;2.10;;;1.23;;
41713;SDS011;27401;47.384;13.666;2022-08-03T22:43:06;1.65;;;1.10;;
41713;SDS011;27401;47.384;13.666;2022-08-03T22:45:32;2.67;;;1.45;;
41713;SDS011;27401;47.384;13.666;2022-08-03T22:47:58;1.52;;;1.40;;
41713;SDS011;27401;47.384;13.666;2022-08-03T22:50:24;2.38;;;1.00;;
41713;SDS011;27401;47.384;13.666;2022-08-03T22:52:51;1.00;;;1.00;;
41713;SDS011;27401;47.384;13.666;2022-08-03T22:55:18;1.00;;;1.00;;
41713;SDS011;27401;47.384;13.666;2022-08-03T22:57:43;3.55;;;1.38;;
41713;SDS011;27401;47.384;13.666;2022-08-03T23:00:12;1.30;;;0.95;;
41713;SDS011;27401;47.384;13.666;2022-08-03T23:02:43;2.50;;;1.10;;
41713;SDS011;27401;47.384;13.666;2022-08-03T23:05:14;2.10;;;1.13;;
41713;SDS011;27401;47.384;13.666;2022-08-03T23:07:45;1.77;;;1.20;;
41713;SDS011;27401;47.384;13.666;2022-08-03T23:10:13;2.45;;;1.10;;
41713;SDS011;27401;47.384;13.666;2022-08-03T23:12:40;1.55;;;1.20;;
41713;SDS011;27401;47.384;13.666;2022-08-03T23:15:07;2.67;;;1.20;;
41713;SDS011;27401;47.384;13.666;2022-08-03T23:17:51;1.52;;;1.20;;
41713;SDS011;27401;47.384;13.666;2022-08-03T23:20:19;2.00;;;1.40;;
41713;SDS011;27401;47.384;13.666;2022-08-03T23:22:46;1.33;;;1.00;;
41713;SDS011;27401;47.384;13.666;2022-08-03T23:25:12;1.80;;;1.23;;
41713;SDS011;27401;47.384;13.666;2022-08-03T23:27:39;1.20;;;1.10;;
41713;SDS011;27401;47.384;13.666;2022-08-03T23:30:06;2.53;;;1.35;;
41713;SDS011;27401;47.384;13.666;2022-08-03T23:32:32;1.20;;;1.10;;
41713;SDS011;27401;47.384;13.666;2022-08-03T23:34:59;2.67;;;1.00;;
41713;SDS011;27401;47.384;13.666;2022-08-03T23:37:44;1.10;;;1.00;;
41713;SDS011;27401;47.384;13.666;2022-08-03T23:40:13;3.75;;;1.20;;
41713;SDS011;27401;47.384;13.666;2022-08-03T23:42:40;1.50;;;1.30;;
41713;SDS011;27401;47.384;13.666;2022-08-03T23:45:06;1.30;;;1.20;;
41713;SDS011;27401;47.384;13.666;2022-08-03T23:47:32;1.33;;;1.23;;
41713;SDS011;27401;47.384;13.666;2022-08-03T23:49:58;1.10;;;1.10;;
41713;SDS011;27401;47.384;13.666;2022-08-03T23:55:59;1.33;;;1.23;;
41713;SDS011;27401;47.384;13.666;2022-08-03T23:58:22;3.00;;;1.38;;
